Time;durP1;ratioP1;P1;durP2;ratioP2;P2;SDS_P1;SDS_P2;PMS_P1;PMS_P2;Temp;Humidity;BMP_temperature;BMP_pressure;BME280_temperature;BME280_humidity;BME280_pressure;Samples;Min_cycle;Max_cycle;Signal;HPM_P1;HPM_P2
2022/08/21 00:02:02;;;;;;;;;3.25;3.25;;;;;22.56;35.41;101272.38;5080562;28;45216;-59
2022/08/21 00:04:28;;;;;;;;;6.00;4.00;;;;;22.53;35.96;101266.34;5061116;28;45537;-59
2022/08/21 00:06:53;;;;;;;;;12.50;5.00;;;;;22.49;36.05;101264.75;5061969;28;46236;-59
2022/08/21 00:09:19;;;;;;;;;4.75;4.50;;;;;22.47;35.96;101254.16;5061349;28;45335;-59
2022/08/21 00:11:45;;;;;;;;;6.00;4.00;;;;;22.45;36.11;101255.19;5062529;28;45402;-59
2022/08/21 00:14:15;;;;;;;;;4.75;4.75;;;;;22.38;36.31;101246.63;5062623;28;45280;-59
2022/08/21 00:16:40;;;;;;;;;4.00;4.00;;;;;22.35;36.09;101250.31;5061930;28;45250;-59
2022/08/21 00:19:06;;;;;;;;;6.75;5.00;;;;;22.32;36.54;101246.94;5062233;28;45162;-59
2022/08/21 00:21:33;;;;;;;;;5.00;4.00;;;;;22.27;36.26;101233.81;5062073;28;45304;-59
2022/08/21 00:23:59;;;;;;;;;5.75;3.50;;;;;22.25;36.13;101241.09;5062102;28;45367;-59
2022/08/21 00:26:24;;;;;;;;;4.50;4.00;;;;;22.24;36.43;101239.34;5061859;28;45339;-59
2022/08/21 00:28:49;;;;;;;;;4.50;3.75;;;;;22.21;36.69;101236.81;5062333;28;45334;-59
2022/08/21 00:31:16;;;;;;;;;5.50;4.75;;;;;22.18;36.27;101239.69;5061897;28;45319;-59
2022/08/21 00:33:42;;;;;;;;;3.25;3.25;;;;;22.14;36.58;101230.06;5062145;28;45292;-59
2022/08/21 00:36:08;;;;;;;;;4.00;4.00;;;;;22.11;36.76;101231.09;5061265;28;46199;-59
2022/08/21 00:38:33;;;;;;;;;4.50;4.50;;;;;22.07;36.71;101232.25;5061960;28;45306;-59
2022/08/21 00:41:01;;;;;;;;;5.00;5.00;;;;;21.98;36.56;101225.56;5061925;28;45549;-59
2022/08/21 00:43:30;;;;;;;;;5.00;4.50;;;;;22.00;36.51;101228.16;5061969;28;45154;-59
2022/08/21 00:45:57;;;;;;;;;4.00;4.00;;;;;21.98;37.15;101230.94;5061498;28;45354;-59
2022/08/21 00:48:23;;;;;;;;;6.75;4.75;;;;;21.95;37.39;101225.75;5061788;28;45405;-59
2022/08/21 00:50:55;;;;;;;;;4.50;4.50;;;;;21.92;37.20;101232.13;5064356;28;45275;-59
2022/08/21 00:53:21;;;;;;;;;5.75;5.00;;;;;21.90;36.83;101233.16;5082085;28;45420;-59
2022/08/21 00:55:47;;;;;;;;;5.75;4.25;;;;;21.87;37.35;101236.00;5081472;28;46339;-58
2022/08/21 00:58:13;;;;;;;;;7.00;5.00;;;;;21.83;36.89;101235.28;5081840;28;45296;-57
2022/08/21 01:00:41;;;;;;;;;5.25;5.00;;;;;21.81;37.51;101233.66;5081855;28;45201;-57
2022/08/21 01:03:12;;;;;;;;;5.00;3.50;;;;;21.79;37.45;101235.56;5071020;28;45180;-58
2022/08/21 01:05:38;;;;;;;;;6.50;3.75;;;;;21.74;37.56;101231.31;5061211;28;46295;-58
2022/08/21 01:08:05;;;;;;;;;6.25;4.25;;;;;21.71;37.41;101227.94;5061602;28;45263;-58
2022/08/21 01:10:32;;;;;;;;;4.00;4.00;;;;;21.67;37.67;101231.72;5074879;28;45347;-58
2022/08/21 01:12:58;;;;;;;;;4.00;3.25;;;;;21.62;37.35;101221.25;5060147;28;45403;-58
2022/08/21 01:15:30;;;;;;;;;4.25;4.25;;;;;21.60;37.90;101228.50;5079151;28;45382;-59
2022/08/21 01:17:55;;;;;;;;;4.00;4.00;;;;;21.58;37.64;101238.41;5081757;28;45296;-58
2022/08/21 01:20:21;;;;;;;;;4.25;4.25;;;;;21.55;37.98;101236.78;5081495;28;45140;-58
2022/08/21 01:22:46;;;;;;;;;8.25;5.50;;;;;21.53;37.84;101238.63;5080189;28;45867;-58
2022/08/21 01:25:15;;;;;;;;;8.50;5.00;;;;;21.49;38.01;101237.06;5081343;28;47118;-58
2022/08/21 01:27:40;;;;;;;;;6.00;5.00;;;;;21.46;37.95;101231.88;5081457;27;45456;-59
2022/08/21 01:30:14;;;;;;;;;5.00;4.25;;;;;21.42;38.03;101236.53;5081568;28;45368;-56
2022/08/21 01:32:40;;;;;;;;;8.25;6.00;;;;;21.40;38.22;101241.06;5081259;28;45243;-58
2022/08/21 01:35:07;;;;;;;;;6.00;3.50;;;;;21.37;38.02;101235.00;5081056;28;46901;-59
2022/08/21 01:37:32;;;;;;;;;7.00;5.00;;;;;21.34;38.19;101241.38;5081325;28;45345;-56
2022/08/21 01:39:58;;;;;;;;;5.75;3.75;;;;;21.32;38.22;101234.41;5081623;28;45323;-56
2022/08/21 01:42:24;;;;;;;;;4.25;4.25;;;;;21.27;38.30;101229.31;5066364;28;45509;-58
2022/08/21 01:44:49;;;;;;;;;5.00;5.00;;;;;21.27;38.69;101246.19;5081442;28;45350;-58
2022/08/21 01:47:15;;;;;;;;;5.00;4.00;;;;;21.24;38.76;101246.38;5081145;28;45254;-58
2022/08/21 01:49:42;;;;;;;;;5.25;5.00;;;;;21.23;38.28;101244.63;5079153;28;45165;-58
2022/08/21 01:52:08;;;;;;;;;5.00;4.00;;;;;21.21;38.60;101249.19;5074762;28;45441;-56
2022/08/21 01:54:33;;;;;;;;;5.25;5.25;;;;;21.18;38.98;101237.78;5081237;28;45307;-56
2022/08/21 01:56:59;;;;;;;;;4.50;3.50;;;;;21.15;38.90;101243.28;5081108;28;45378;-56
2022/08/21 01:59:26;;;;;;;;;3.50;3.00;;;;;21.10;38.54;101239.03;5081304;28;45367;-56
2022/08/21 02:01:53;;;;;;;;;4.50;4.50;;;;;21.09;39.11;101242.66;5078846;28;45548;-56
2022/08/21 02:04:19;;;;;;;;;4.50;3.00;;;;;21.05;38.96;101245.56;5060830;28;46298;-56
2022/08/21 02:06:45;;;;;;;;;5.00;4.75;;;;;21.02;38.65;101238.56;5059530;28;45261;-57
2022/08/21 02:09:11;;;;;;;;;4.00;4.00;;;;;21.02;38.68;101241.22;5061245;28;45263;-56
2022/08/21 02:11:40;;;;;;;;;7.75;5.00;;;;;21.00;38.85;101244.94;5060757;28;45224;-56
2022/08/21 02:14:11;;;;;;;;;4.25;4.25;;;;;20.93;39.13;101233.69;5060806;28;46240;-56
2022/08/21 02:16:38;;;;;;;;;3.50;3.50;;;;;20.94;39.29;101241.63;5072871;28;45276;-55
2022/08/21 02:19:03;;;;;;;;;6.50;5.25;;;;;20.92;38.90;101238.16;5060870;28;45407;-55
2022/08/21 02:21:29;;;;;;;;;6.50;5.75;;;;;20.90;39.36;101229.34;5060289;28;45462;-56
2022/08/21 02:23:54;;;;;;;;;4.00;3.00;;;;;20.88;38.99;101223.22;5060529;28;45344;-56
2022/08/21 02:26:20;;;;;;;;;6.50;4.00;;;;;20.85;39.12;101220.69;5060454;28;45275;-55
2022/08/21 02:28:45;;;;;;;;;4.75;4.75;;;;;20.84;39.07;101219.00;5060821;28;45427;-56
2022/08/21 02:31:11;;;;;;;;;4.50;4.00;;;;;20.82;39.27;101211.97;5060260;28;45437;-56
2022/08/21 02:33:36;;;;;;;;;4.25;3.50;;;;;20.79;39.69;101212.97;5060282;28;46880;-55
2022/08/21 02:36:03;;;;;;;;;4.00;3.00;;;;;20.80;39.54;101221.88;5058507;28;45331;-56
2022/08/21 02:38:37;;;;;;;;;3.25;3.25;;;;;20.78;39.49;101214.81;5060477;28;45346;-56
2022/08/21 02:41:05;;;;;;;;;6.00;5.50;;;;;20.74;39.28;101221.25;5060197;28;45491;-55
2022/08/21 02:43:30;;;;;;;;;5.75;5.75;;;;;20.74;39.36;101217.69;5060127;28;45156;-56
2022/08/21 02:45:57;;;;;;;;;7.25;3.75;;;;;20.72;39.90;101219.59;5059939;28;45296;-55
2022/08/21 02:48:26;;;;;;;;;7.00;6.50;;;;;20.70;39.42;101224.94;5060374;28;45376;-56
2022/08/21 02:50:58;;;;;;;;;6.25;3.75;;;;;20.69;40.24;101227.72;5063188;28;45461;-56
2022/08/21 02:53:24;;;;;;;;;3.75;3.75;;;;;20.66;40.27;101223.38;5080391;28;46282;-56
2022/08/21 02:55:51;;;;;;;;;5.00;5.00;;;;;20.66;39.79;101227.88;5080295;28;45451;-55
2022/08/21 02:58:20;;;;;;;;;5.00;4.25;;;;;20.62;40.41;101222.66;5067915;28;45342;-56
2022/08/21 03:00:46;;;;;;;;;7.00;5.00;;;;;20.59;39.99;101233.50;5077750;28;45415;-56
2022/08/21 03:03:14;;;;;;;;;3.75;3.75;;;;;20.57;39.98;101242.53;5068750;28;45165;-56
2022/08/21 03:05:40;;;;;;;;;4.50;3.50;;;;;20.55;40.35;101231.94;5059476;28;45504;-53
2022/08/21 03:08:09;;;;;;;;;4.25;4.25;;;;;20.54;40.03;101226.66;5060125;28;45351;-55
2022/08/21 03:10:35;;;;;;;;;6.50;4.75;;;;;20.52;40.60;101225.88;5058480;28;45444;-55
2022/08/21 03:13:03;;;;;;;;;4.25;4.25;;;;;20.47;40.62;101223.41;5059870;28;45430;-56
2022/08/21 03:15:28;;;;;;;;;3.50;3.50;;;;;20.48;40.57;101224.25;5059687;28;45198;-56
2022/08/21 03:17:54;;;;;;;;;4.25;3.25;;;;;20.45;40.45;101228.84;5060820;28;45486;-56
2022/08/21 03:20:23;;;;;;;;;7.75;5.00;;;;;20.44;40.26;101219.09;5063084;28;45491;-55
2022/08/21 03:22:49;;;;;;;;;5.75;5.75;;;;;20.41;40.50;101215.69;5063319;28;46174;-56
2022/08/21 03:25:14;;;;;;;;;6.00;6.00;;;;;20.36;40.51;101215.91;5061905;28;45347;-58
2022/08/21 03:27:39;;;;;;;;;9.00;5.50;;;;;20.37;40.47;101219.47;5063476;28;45260;-58
2022/08/21 03:30:06;;;;;;;;;5.25;5.25;;;;;20.35;41.01;101219.53;5063122;28;45524;-54
2022/08/21 03:32:33;;;;;;;;;6.50;4.25;;;;;20.33;41.13;101218.75;5062967;28;45351;-55
2022/08/21 03:34:59;;;;;;;;;9.50;5.25;;;;;20.29;40.65;101212.69;5062784;28;45186;-55
2022/08/21 03:37:25;;;;;;;;;6.50;4.75;;;;;20.30;40.64;101216.19;5063286;28;45290;-56
2022/08/21 03:39:51;;;;;;;;;8.25;5.50;;;;;20.28;40.70;101216.28;5063013;28;45255;-55
2022/08/21 03:42:16;;;;;;;;;4.25;4.00;;;;;20.25;41.15;101215.56;5062956;28;46175;-54
2022/08/21 03:44:41;;;;;;;;;4.00;4.00;;;;;20.26;40.95;101218.19;5063031;28;45256;-55
2022/08/21 03:47:07;;;;;;;;;3.75;3.75;;;;;20.24;41.36;101208.53;5063096;28;45498;-55
2022/08/21 03:49:33;;;;;;;;;6.75;5.00;;;;;20.23;41.38;101206.78;5078128;28;45434;-55
2022/08/21 03:51:59;;;;;;;;;7.75;5.00;;;;;20.20;40.72;101201.56;5075447;28;45291;-56
2022/08/21 03:54:25;;;;;;;;;4.00;4.00;;;;;20.15;41.49;101183.13;5083117;28;45208;-55
2022/08/21 03:56:51;;;;;;;;;5.25;5.00;;;;;20.16;40.96;101187.50;5083242;28;45304;-55
2022/08/21 03:59:17;;;;;;;;;7.00;6.00;;;;;20.14;41.07;101189.41;5082925;28;45579;-56
2022/08/21 04:01:54;;;;;;;;;5.75;5.75;;;;;20.10;41.25;101186.00;5082542;27;45446;-55
2022/08/21 04:04:19;;;;;;;;;5.25;5.00;;;;;20.09;41.62;101178.94;5062791;28;45347;-55
2022/08/21 04:06:44;;;;;;;;;7.75;5.00;;;;;20.08;41.05;101185.22;5061082;28;45320;-56
2022/08/21 04:09:10;;;;;;;;;7.25;7.25;;;;;20.06;41.56;101176.44;5062811;28;45279;-55
2022/08/21 04:11:36;;;;;;;;;6.25;5.00;;;;;20.04;41.76;101178.31;5062571;28;45510;-55
2022/08/21 04:14:02;;;;;;;;;5.75;5.25;;;;;20.00;41.65;101174.06;5062622;28;45326;-55
2022/08/21 04:16:27;;;;;;;;;4.00;4.00;;;;;20.00;41.86;101178.50;5061241;28;45348;-54
2022/08/21 04:18:52;;;;;;;;;10.75;8.00;;;;;19.98;41.85;101178.59;5062669;28;45334;-56
2022/08/21 04:21:18;;;;;;;;;7.75;5.00;;;;;19.96;41.41;101180.44;5071889;28;46415;-55
2022/08/21 04:23:43;;;;;;;;;5.00;4.75;;;;;19.95;41.45;101176.06;5062560;28;45338;-55
2022/08/21 04:26:08;;;;;;;;;6.75;6.75;;;;;19.92;41.92;101178.88;5062320;28;45319;-57
2022/08/21 04:28:34;;;;;;;;;5.50;5.50;;;;;19.91;41.95;101187.78;5062569;28;45391;-54
2022/08/21 04:30:59;;;;;;;;;6.00;5.00;;;;;19.89;41.78;101189.69;5061134;28;46061;-55
2022/08/21 04:33:25;;;;;;;;;7.00;5.25;;;;;19.87;41.76;101197.75;5062311;28;45233;-54
2022/08/21 04:35:50;;;;;;;;;3.75;3.75;;;;;19.85;42.21;101206.75;5062067;28;45185;-55
2022/08/21 04:38:16;;;;;;;;;6.00;6.00;;;;;19.84;41.78;101207.72;5062134;28;45335;-56
2022/08/21 04:40:42;;;;;;;;;4.00;4.00;;;;;19.81;42.41;101216.69;5061937;28;45630;-56
2022/08/21 04:43:09;;;;;;;;;6.75;6.75;;;;;19.77;42.07;101213.28;5064831;28;51737;-56
2022/08/21 04:45:38;;;;;;;;;5.00;5.00;;;;;19.78;42.44;101214.13;5062159;28;45346;-56
2022/08/21 04:48:09;;;;;;;;;5.25;4.00;;;;;19.74;42.23;101216.06;5061926;28;45569;-55
2022/08/21 04:50:42;;;;;;;;;4.25;4.00;;;;;19.72;42.47;101217.06;5062373;28;45355;-56
2022/08/21 04:53:19;;;;;;;;;5.25;3.50;;;;;19.73;42.25;101221.47;5082206;27;45185;-56
2022/08/21 04:55:46;;;;;;;;;8.00;5.00;;;;;19.71;42.26;101226.88;5080865;28;45358;-56
2022/08/21 04:58:17;;;;;;;;;5.75;4.25;;;;;19.67;42.28;101213.75;5082162;28;45330;-54
2022/08/21 05:00:44;;;;;;;;;6.25;5.25;;;;;19.68;42.11;101220.81;5081682;28;46049;-54
2022/08/21 05:03:11;;;;;;;;;6.00;5.25;;;;;19.66;42.19;101226.22;5070090;28;45337;-56
2022/08/21 05:05:37;;;;;;;;;4.25;4.00;;;;;19.65;42.22;101225.34;5061464;28;45300;-55
2022/08/21 05:08:04;;;;;;;;;5.00;5.00;;;;;19.67;42.37;101227.09;5061692;28;45461;-56
2022/08/21 05:10:31;;;;;;;;;7.00;4.75;;;;;19.63;42.89;101219.25;5061442;28;47273;-55
2022/08/21 05:12:57;;;;;;;;;3.75;3.75;;;;;19.64;42.61;101234.28;5061650;28;45315;-55
2022/08/21 05:15:23;;;;;;;;;5.50;5.50;;;;;19.64;42.18;101234.28;5061725;28;45378;-56
2022/08/21 05:17:50;;;;;;;;;2.50;2.00;;;;;19.64;42.45;101228.09;5061371;28;45240;-54
2022/08/21 05:20:16;;;;;;;;;4.75;4.50;;;;;19.63;42.52;101229.91;5061141;28;46078;-54
2022/08/21 05:22:41;;;;;;;;;4.00;3.00;;;;;19.54;42.29;101214.31;5061297;28;45335;-55
2022/08/21 05:25:09;;;;;;;;;7.00;4.25;;;;;19.61;42.17;101221.09;5075592;28;45510;-55
2022/08/21 05:27:34;;;;;;;;;5.00;5.00;;;;;19.60;42.19;101223.84;5061379;28;45401;-55
2022/08/21 05:30:00;;;;;;;;;5.75;4.00;;;;;19.55;42.84;101210.72;5061123;28;45832;-54
2022/08/21 05:32:27;;;;;;;;;5.00;4.00;;;;;19.60;42.48;101226.50;5068608;28;45310;-53
2022/08/21 05:34:53;;;;;;;;;5.75;4.00;;;;;19.57;42.80;101218.63;5059824;28;45459;-54
2022/08/21 05:37:18;;;;;;;;;7.75;4.75;;;;;19.57;42.74;101210.63;5073395;28;45172;-56
2022/08/21 05:39:44;;;;;;;;;3.75;3.75;;;;;19.57;42.81;101215.97;5081383;28;46109;-55
2022/08/21 05:42:09;;;;;;;;;5.00;4.25;;;;;19.57;43.13;101219.50;5066400;28;45252;-51
2022/08/21 05:44:34;;;;;;;;;4.00;4.00;;;;;19.57;43.05;101218.63;5080143;28;45429;-55
2022/08/21 05:47:08;;;;;;;;;5.75;4.00;;;;;19.57;43.07;101213.28;5081249;28;45252;-54
2022/08/21 05:49:34;;;;;;;;;5.75;3.50;;;;;19.57;42.89;101218.63;5061118;28;48132;-55
2022/08/21 05:52:00;;;;;;;;;8.00;6.75;;;;;19.56;42.85;101219.56;5081039;28;45348;-55
2022/08/21 05:54:25;;;;;;;;;6.00;5.00;;;;;19.55;43.13;101223.19;5081326;28;45317;-54
2022/08/21 05:56:51;;;;;;;;;7.00;5.50;;;;;19.56;43.34;101223.09;5081087;28;45505;-54
2022/08/21 05:59:17;;;;;;;;;7.25;6.00;;;;;19.55;42.93;101220.50;5080943;28;46266;-54
2022/08/21 06:01:42;;;;;;;;;6.25;4.00;;;;;19.56;42.93;101232.88;5080904;28;45147;-55
2022/08/21 06:04:07;;;;;;;;;8.00;6.50;;;;;19.57;43.44;101235.50;5060022;28;45329;-55
2022/08/21 06:06:34;;;;;;;;;9.00;6.25;;;;;19.58;43.24;101233.69;5060522;28;45316;-54
2022/08/21 06:09:00;;;;;;;;;6.00;4.50;;;;;19.56;43.05;101217.78;5060581;28;45348;-54
2022/08/21 06:11:25;;;;;;;;;5.25;5.25;;;;;19.55;43.18;101220.50;5060526;28;45236;-55
2022/08/21 06:13:51;;;;;;;;;10.75;5.00;;;;;19.58;43.19;101218.56;5060759;28;45304;-54
2022/08/21 06:16:16;;;;;;;;;5.00;4.00;;;;;19.58;43.54;101217.69;5060351;28;45526;-54
2022/08/21 06:18:43;;;;;;;;;7.75;5.25;;;;;19.56;43.12;101217.78;5060575;28;45438;-54
2022/08/21 06:21:08;;;;;;;;;5.00;5.00;;;;;19.55;43.48;101216.03;5060329;28;45261;-54
2022/08/21 06:23:35;;;;;;;;;4.75;4.75;;;;;19.59;43.74;101227.44;5060638;28;45454;-55
2022/08/21 06:26:02;;;;;;;;;6.25;4.00;;;;;19.60;43.71;101231.84;5060418;28;45327;-54
2022/08/21 06:28:28;;;;;;;;;5.00;5.00;;;;;19.60;43.30;101232.69;5060484;28;45883;-55
2022/08/21 06:30:53;;;;;;;;;6.75;5.00;;;;;19.60;43.13;101234.50;5058660;28;45348;-53
2022/08/21 06:33:18;;;;;;;;;6.00;5.50;;;;;19.62;43.21;101232.63;5060751;28;45314;-55
2022/08/21 06:35:44;;;;;;;;;6.00;4.25;;;;;19.63;43.33;101231.69;5059972;28;45243;-54
2022/08/21 06:38:09;;;;;;;;;7.00;5.75;;;;;19.63;43.25;101227.25;5062717;28;46173;-54
2022/08/21 06:40:36;;;;;;;;;6.25;5.50;;;;;19.64;43.65;101226.28;5060183;28;45363;-54
2022/08/21 06:43:11;;;;;;;;;5.50;5.50;;;;;19.66;43.45;101223.56;5059130;28;45290;-55
2022/08/21 06:45:37;;;;;;;;;7.50;7.00;;;;;19.68;43.45;101226.16;5059976;28;45550;-55
2022/08/21 06:48:02;;;;;;;;;9.00;7.75;;;;;19.69;43.58;101215.41;5060025;28;45355;-55
2022/08/21 06:50:28;;;;;;;;;7.50;6.25;;;;;19.71;43.44;101216.22;5059839;28;45376;-56
2022/08/21 06:53:03;;;;;;;;;5.00;4.25;;;;;19.73;43.56;101206.34;5080220;28;45342;-55
2022/08/21 06:55:28;;;;;;;;;9.50;8.50;;;;;19.77;43.86;101207.94;5080327;28;45178;-56
2022/08/21 06:57:54;;;;;;;;;6.00;6.00;;;;;19.79;43.55;101198.06;5080339;28;45470;-56
2022/08/21 07:00:20;;;;;;;;;7.25;5.00;;;;;19.82;43.59;101199.72;5065268;28;45346;-55
2022/08/21 07:02:45;;;;;;;;;7.00;6.25;;;;;19.88;44.01;101203.97;5071858;28;45284;-55
2022/08/21 07:05:10;;;;;;;;;6.50;5.75;;;;;19.93;43.60;101199.28;5059684;28;45330;-55
2022/08/21 07:07:35;;;;;;;;;6.00;6.00;;;;;19.96;43.99;101210.66;5059963;28;45367;-55
2022/08/21 07:10:01;;;;;;;;;10.75;5.25;;;;;20.01;43.66;101205.09;5059729;28;45344;-55
2022/08/21 07:12:27;;;;;;;;;7.50;6.00;;;;;20.05;43.95;101203.16;5060091;28;45791;-56
2022/08/21 07:14:52;;;;;;;;;6.75;6.00;;;;;20.10;44.02;101209.13;5059835;28;45307;-54
2022/08/21 07:17:17;;;;;;;;;6.00;5.25;;;;;20.13;43.48;101209.00;5059616;28;48658;-56
2022/08/21 07:19:42;;;;;;;;;8.00;7.00;;;;;20.18;43.99;101206.13;5059467;28;45338;-55
2022/08/21 07:22:08;;;;;;;;;5.25;5.00;;;;;20.21;43.51;101200.66;5059508;28;45535;-56
2022/08/21 07:24:33;;;;;;;;;5.50;5.50;;;;;20.23;43.51;101202.31;5059605;28;45617;-55
2022/08/21 07:26:58;;;;;;;;;5.00;3.25;;;;;20.27;44.06;101201.19;5059404;28;52022;-56
2022/08/21 07:29:24;;;;;;;;;4.00;4.00;;;;;20.30;43.67;101208.19;5059590;28;48225;-55
2022/08/21 07:31:49;;;;;;;;;9.25;7.25;;;;;20.34;44.05;101212.47;5059715;28;45177;-55
2022/08/21 07:34:14;;;;;;;;;6.00;5.00;;;;;20.39;43.96;101209.56;5059696;28;45163;-54
2022/08/21 07:36:40;;;;;;;;;6.25;5.50;;;;;20.35;43.40;101200.88;5059518;28;45268;-56
2022/08/21 07:39:05;;;;;;;;;6.25;6.25;;;;;20.46;44.03;101211.00;5059556;28;45262;-56
2022/08/21 07:41:31;;;;;;;;;8.00;7.00;;;;;20.48;43.58;101198.47;5059684;28;45161;-56
2022/08/21 07:43:59;;;;;;;;;8.75;7.25;;;;;20.53;43.85;101192.91;5059365;28;45460;-54
2022/08/21 07:46:25;;;;;;;;;8.25;8.00;;;;;20.58;43.89;101197.06;5059365;28;45374;-56
2022/08/21 07:48:51;;;;;;;;;7.00;6.75;;;;;20.67;43.58;101198.41;5059257;28;45335;-56
2022/08/21 07:51:18;;;;;;;;;9.75;7.25;;;;;20.72;43.48;101191.06;5066232;28;45350;-54
2022/08/21 07:53:50;;;;;;;;;9.25;6.00;;;;;20.80;43.54;101193.34;5079690;28;45435;-55
2022/08/21 07:56:16;;;;;;;;;6.25;6.25;;;;;20.86;43.58;101192.19;5079588;28;46442;-56
2022/08/21 07:58:42;;;;;;;;;7.25;6.00;;;;;20.93;43.43;101191.81;5079390;28;45336;-55
2022/08/21 08:01:07;;;;;;;;;7.50;7.50;;;;;21.02;43.61;101190.47;5079787;28;45322;-56
2022/08/21 08:03:33;;;;;;;;;7.50;7.50;;;;;21.11;44.12;101192.66;5064467;27;45252;-55
2022/08/21 08:05:59;;;;;;;;;6.75;6.75;;;;;21.19;43.38;101194.94;5061408;28;45685;-56
2022/08/21 08:08:25;;;;;;;;;7.75;6.00;;;;;21.27;43.82;101191.88;5062623;28;45239;-55
2022/08/21 08:10:52;;;;;;;;;7.25;6.75;;;;;21.33;43.63;101183.53;5062899;28;45360;-55
2022/08/21 08:13:17;;;;;;;;;10.25;6.75;;;;;21.45;43.91;101190.06;5062431;28;45149;-54
2022/08/21 08:15:43;;;;;;;;;6.50;5.25;;;;;21.53;43.61;101192.31;5062524;28;46270;-56
2022/08/21 08:18:08;;;;;;;;;5.75;5.75;;;;;21.63;43.68;101190.03;5062452;28;45205;-56
2022/08/21 08:20:33;;;;;;;;;5.50;5.25;;;;;21.73;43.85;101184.09;5062358;28;45421;-57
2022/08/21 08:22:59;;;;;;;;;7.00;6.00;;;;;21.85;44.02;101195.97;5062509;28;45280;-56
2022/08/21 08:25:26;;;;;;;;;8.50;7.00;;;;;21.96;43.64;101186.47;5062284;28;49452;-55
2022/08/21 08:27:51;;;;;;;;;7.25;6.00;;;;;22.07;43.90;101187.63;5062334;28;45295;-55
2022/08/21 08:30:18;;;;;;;;;6.75;5.75;;;;;22.21;43.59;101191.31;5062447;28;45359;-55
2022/08/21 08:32:44;;;;;;;;;5.75;5.75;;;;;22.33;43.82;101189.78;5062142;28;45518;-55
2022/08/21 08:35:11;;;;;;;;;6.50;6.00;;;;;22.45;43.57;101188.25;5062092;28;46276;-55
2022/08/21 08:37:39;;;;;;;;;7.50;7.00;;;;;22.56;43.68;101185.81;5062147;28;45608;-55
2022/08/21 08:40:06;;;;;;;;;7.00;6.25;;;;;22.68;43.27;101187.78;5062350;28;45429;-55
2022/08/21 08:42:35;;;;;;;;;9.75;7.00;;;;;22.79;43.27;101179.13;5061928;28;45549;-55
2022/08/21 08:45:15;;;;;;;;;6.50;5.25;;;;;22.92;43.02;101183.75;5061830;28;46565;-55
2022/08/21 08:47:49;;;;;;;;;7.75;7.00;;;;;23.03;42.78;101182.16;5061800;28;45364;-55
2022/08/21 08:50:33;;;;;;;;;9.00;7.50;;;;;23.15;42.99;101180.59;5065726;28;45487;-55
2022/08/21 08:53:05;;;;;;;;;6.25;6.25;;;;;23.27;42.99;101180.78;5082307;28;45200;-54
2022/08/21 08:55:33;;;;;;;;;6.75;5.50;;;;;23.37;42.92;101173.94;5082112;27;45229;-55
2022/08/21 08:57:59;;;;;;;;;7.00;5.75;;;;;23.46;42.89;101170.69;5081884;28;45381;-55
2022/08/21 09:00:25;;;;;;;;;7.00;5.25;;;;;23.57;42.07;101170.03;5082091;28;45325;-55
2022/08/21 09:02:56;;;;;;;;;7.25;3.50;;;;;23.66;42.64;101177.47;5072571;28;45340;-55
2022/08/21 09:05:42;;;;;;;;;7.00;4.75;;;;;23.75;42.74;101173.34;5061292;28;45343;-57
2022/08/21 09:08:35;;;;;;;;;8.00;7.00;;;;;23.84;42.45;101164.72;5045984;28;45432;-56
2022/08/21 09:11:15;;;;;;;;;7.50;6.00;;;;;23.91;41.97;101162.56;5071163;28;45292;-55
2022/08/21 09:14:14;;;;;;;;;5.00;4.00;;;;;24.02;42.15;101160.03;5081852;28;45403;-55
2022/08/21 09:17:17;;;;;;;;;6.00;5.50;;;;;24.12;41.92;101156.75;5081296;27;46593;-56
2022/08/21 09:20:05;;;;;;;;;8.25;7.00;;;;;24.18;42.05;101153.66;5081481;27;45279;-55
2022/08/21 09:23:07;;;;;;;;;6.50;6.50;;;;;24.29;41.93;101150.28;5081870;27;45440;-56
2022/08/21 09:25:54;;;;;;;;;6.25;5.25;;;;;24.39;41.66;101151.41;5081591;28;45494;-56
2022/08/21 09:28:19;;;;;;;;;6.25;6.00;;;;;24.49;41.05;101143.59;5061841;28;46265;-56
2022/08/21 09:30:44;;;;;;;;;5.00;5.00;;;;;24.59;41.55;101150.06;5072542;28;45177;-56
2022/08/21 09:33:12;;;;;;;;;5.50;4.00;;;;;24.71;41.63;101142.19;5081522;28;45423;-57
2022/08/21 09:35:51;;;;;;;;;6.50;4.50;;;;;24.82;41.73;101140.47;5081372;28;45253;-56
2022/08/21 09:38:27;;;;;;;;;5.00;5.00;;;;;24.93;41.21;101139.75;5080051;28;46659;-56
2022/08/21 09:40:59;;;;;;;;;6.00;4.00;;;;;25.05;41.45;101137.19;5081049;28;45410;-56
2022/08/21 09:43:25;;;;;;;;;4.00;4.00;;;;;25.14;41.06;101131.16;5081578;28;45307;-57
2022/08/21 09:46:10;;;;;;;;;5.25;4.00;;;;;25.23;41.22;101132.34;5081007;28;46167;-57
2022/08/21 09:48:56;;;;;;;;;4.75;4.75;;;;;25.31;40.75;101136.22;5081054;28;46346;-57
2022/08/21 09:51:28;;;;;;;;;6.50;5.00;;;;;25.39;40.20;101133.00;5072155;28;45264;-57
2022/08/21 09:54:10;;;;;;;;;6.00;5.00;;;;;25.49;40.28;101140.44;5081262;28;45479;-56
2022/08/21 09:59:41;;;;;;;;;5.75;4.75;;;;;25.65;40.13;101146.44;5081024;28;45713;-55
2022/08/21 10:02:16;;;;;;;;;5.75;5.00;;;;;25.73;39.85;101146.75;5077620;28;45235;-55
2022/08/21 10:04:50;;;;;;;;;5.75;4.00;;;;;25.83;40.21;101138.88;5060587;28;45571;-56
2022/08/21 10:07:20;;;;;;;;;5.00;4.75;;;;;25.95;40.31;101134.44;5060597;28;45509;-56
2022/08/21 10:09:46;;;;;;;;;5.25;5.25;;;;;26.04;40.06;101124.81;5060516;28;45395;-56
2022/08/21 10:12:42;;;;;;;;;5.50;5.00;;;;;26.20;39.60;101122.75;5060546;28;45349;-56
2022/08/21 10:15:44;;;;;;;;;5.50;4.50;;;;;26.39;40.16;101124.03;5060833;28;45469;-57
2022/08/21 10:18:18;;;;;;;;;6.50;5.25;;;;;26.55;39.71;101121.06;5041765;28;46651;-57
2022/08/21 10:20:59;;;;;;;;;3.00;3.00;;;;;26.70;39.21;101119.88;5060184;28;46097;-57
2022/08/21 10:23:58;;;;;;;;;3.50;3.50;;;;;26.85;39.57;101111.63;5060638;28;45360;-57
2022/08/21 10:26:36;;;;;;;;;4.00;4.00;;;;;27.00;38.79;101105.03;5060611;28;45483;-57
2022/08/21 10:29:13;;;;;;;;;4.50;4.50;;;;;27.14;39.04;101093.16;5059809;28;45385;-57
2022/08/21 10:32:04;;;;;;;;;3.00;2.50;;;;;27.31;39.26;101093.66;5060079;28;46116;-58
2022/08/21 10:34:56;;;;;;;;;3.75;3.75;;;;;27.50;39.10;101087.69;5059880;28;45304;-58
2022/08/21 10:37:24;;;;;;;;;2.75;2.75;;;;;27.61;38.88;101086.81;5060685;28;45497;-57
2022/08/21 10:40:17;;;;;;;;;5.75;3.00;;;;;27.68;38.30;101102.38;5060176;28;45676;-57
2022/08/21 10:43:00;;;;;;;;;4.25;3.50;;;;;27.69;38.19;101085.19;5060020;28;45279;-56
2022/08/21 10:45:48;;;;;;;;;4.75;4.00;;;;;27.69;37.58;101093.31;5060146;28;45295;-57
2022/08/21 10:48:28;;;;;;;;;3.50;3.50;;;;;27.66;37.92;101081.88;5060331;28;45536;-58
2022/08/21 10:51:06;;;;;;;;;3.50;3.00;;;;;27.65;37.57;101069.41;5062497;28;45320;-56
2022/08/21 10:53:53;;;;;;;;;3.00;3.00;;;;;27.63;37.22;101074.06;5080145;28;46141;-57
2022/08/21 10:56:29;;;;;;;;;3.75;3.25;;;;;27.62;37.36;101069.63;5080400;28;45255;-57
2022/08/21 10:59:09;;;;;;;;;3.50;3.00;;;;;27.66;37.50;101069.28;5079825;28;45287;-57
2022/08/21 11:02:09;;;;;;;;;2.75;2.50;;;;;27.77;37.19;101071.06;5080101;28;45161;-57
2022/08/21 11:04:50;;;;;;;;;2.75;2.75;;;;;27.99;37.27;101061.22;5064869;28;47405;-57
2022/08/21 11:07:25;;;;;;;;;4.00;3.25;;;;;28.26;37.71;101057.22;5077398;28;45455;-57
2022/08/21 11:09:55;;;;;;;;;3.00;3.00;;;;;28.54;37.67;101059.28;5079009;28;45182;-58
2022/08/21 11:12:27;;;;;;;;;4.00;2.75;;;;;28.79;37.43;101064.44;5080170;28;45315;-57
2022/08/21 11:14:53;;;;;;;;;5.75;3.25;;;;;28.97;37.10;101068.25;5079870;28;45379;-58
2022/08/21 11:17:23;;;;;;;;;3.00;2.00;;;;;29.13;36.84;101075.00;5079887;28;45286;-58
2022/08/21 11:19:59;;;;;;;;;4.25;2.00;;;;;29.17;36.50;101071.06;5079909;28;45263;-59
2022/08/21 11:23:04;;;;;;;;;2.00;2.00;;;;;29.24;36.15;101063.25;5079773;28;45568;-59
2022/08/21 11:25:29;;;;;;;;;2.50;2.00;;;;;29.22;35.89;101068.81;5079805;27;46958;-59
2022/08/21 11:28:06;;;;;;;;;2.50;1.00;;;;;29.18;35.25;101064.63;5079802;28;45235;-59
2022/08/21 11:30:45;;;;;;;;;2.00;2.00;;;;;29.11;35.41;101069.75;5080131;28;45169;-59
2022/08/21 11:33:48;;;;;;;;;3.25;2.75;;;;;29.05;35.36;101078.41;5079772;28;45345;-59
2022/08/21 11:36:38;;;;;;;;;4.50;3.00;;;;;28.91;35.26;101086.88;5079444;27;45232;-59
2022/08/21 11:39:39;;;;;;;;;3.25;1.25;;;;;28.79;35.17;101081.53;5080803;28;45343;-59